createdAt,value
2022-10-05T00:00:14.755Z,1334
2022-10-05T00:01:06.596Z,2478
2022-10-05T00:01:58.411Z,3292
2022-10-05T00:02:50.114Z,1902
2022-10-05T00:03:41.853Z,1241
2022-10-05T00:04:33.640Z,1842
2022-10-05T00:05:25.341Z,2803
2022-10-05T00:06:17.153Z,1451
2022-10-05T00:07:08.904Z,1719
2022-10-05T00:08:00.643Z,2192
2022-10-05T00:08:52.420Z,2271
2022-10-05T00:09:44.200Z,2692
2022-10-05T00:10:35.929Z,1578
2022-10-05T00:11:27.709Z,1088
2022-10-05T00:12:19.458Z,1894
2022-10-05T00:13:11.219Z,2569
2022-10-05T00:14:02.991Z,1537
2022-10-05T00:14:54.743Z,1551
2022-10-05T00:15:46.502Z,2859
2022-10-05T00:16:38.278Z,3079
2022-10-05T00:17:30.018Z,1285
2022-10-05T00:18:21.779Z,1416
2022-10-05T00:19:13.513Z,1029
2022-10-05T00:20:05.199Z,2509
2022-10-05T00:20:57.034Z,1273
2022-10-05T00:21:48.795Z,1620
2022-10-05T00:22:40.567Z,876
2022-10-05T00:23:32.329Z,1765
2022-10-05T00:24:24.069Z,1267
2022-10-05T00:25:15.826Z,2458
2022-10-05T00:26:07.593Z,1670
2022-10-05T00:26:59.357Z,2559
2022-10-05T00:27:51.092Z,2152
2022-10-05T00:28:42.867Z,2269
2022-10-05T00:29:34.620Z,2051
2022-10-05T00:30:26.386Z,2855
2022-10-05T00:31:18.176Z,1715
2022-10-05T00:32:10.002Z,2208
2022-10-05T00:33:01.651Z,1064
2022-10-05T00:33:53.398Z,1844
2022-10-05T00:34:45.064Z,1920
2022-10-05T00:35:36.916Z,1717
2022-10-05T00:36:28.676Z,2154
2022-10-05T00:37:20.423Z,1682
2022-10-05T00:38:12.179Z,751
2022-10-05T00:39:03.987Z,923
2022-10-05T00:39:55.728Z,1541
2022-10-05T00:40:47.464Z,1479
2022-10-05T00:41:39.231Z,892
2022-10-05T00:42:30.968Z,723
2022-10-05T00:43:22.723Z,698
2022-10-05T00:44:14.480Z,551
2022-10-05T00:45:06.279Z,572
2022-10-05T00:45:58.041Z,577
2022-10-05T00:46:49.733Z,1620
2022-10-05T00:47:41.493Z,1944
2022-10-05T00:48:33.244Z,2906
2022-10-05T00:49:24.959Z,1036
2022-10-05T00:50:16.723Z,1483
2022-10-05T00:51:08.495Z,1185
2022-10-05T00:52:00.255Z,1527
2022-10-05T00:52:51.998Z,2823
2022-10-05T00:53:43.754Z,3149
2022-10-05T00:54:35.474Z,1493
2022-10-05T00:55:27.242Z,2071
2022-10-05T00:56:19.012Z,2110
2022-10-05T00:57:10.739Z,1769
2022-10-05T00:58:02.501Z,1541
2022-10-05T00:58:54.251Z,1213
2022-10-05T00:59:46.023Z,1662
2022-10-05T01:00:37.756Z,687
2022-10-05T01:01:29.584Z,929
2022-10-05T01:02:21.306Z,838
2022-10-05T01:03:13.038Z,1324
2022-10-05T01:04:04.797Z,1306
2022-10-05T01:04:56.540Z,1175
2022-10-05T01:05:48.279Z,548
2022-10-05T01:06:40.047Z,880
2022-10-05T01:07:31.797Z,622
2022-10-05T01:08:23.550Z,496
2022-10-05T01:09:15.214Z,593
2022-10-05T01:10:07.071Z,552
2022-10-05T01:10:58.795Z,514
2022-10-05T01:11:50.571Z,620
2022-10-05T01:12:42.307Z,487
2022-10-05T01:13:34.048Z,550
2022-10-05T01:14:25.802Z,691
2022-10-05T01:15:17.560Z,588
2022-10-05T01:16:09.375Z,2416
2022-10-05T01:17:01.244Z,1173
2022-10-05T01:17:52.793Z,1402
2022-10-05T01:18:44.589Z,715
2022-10-05T01:19:36.335Z,1817
2022-10-05T01:20:28.086Z,971
2022-10-05T01:21:19.810Z,1801
2022-10-05T01:22:11.600Z,2392
2022-10-05T01:23:03.318Z,4994
2022-10-05T01:23:55.036Z,1163
2022-10-05T01:24:46.828Z,699
2022-10-05T01:25:38.585Z,663
2022-10-05T01:26:30.317Z,1167
2022-10-05T01:27:22.083Z,999
2022-10-05T01:28:13.888Z,1453
2022-10-05T01:29:05.499Z,1678
2022-10-05T01:29:57.334Z,1995
2022-10-05T01:30:49.093Z,2424
2022-10-05T01:31:40.877Z,810
2022-10-05T01:32:32.596Z,957
2022-10-05T01:33:24.329Z,1461
2022-10-05T01:34:16.077Z,3155
2022-10-05T01:35:07.823Z,2319
2022-10-05T01:35:59.575Z,1420
2022-10-05T01:36:51.308Z,768
2022-10-05T01:37:43.092Z,602
2022-10-05T01:38:34.814Z,1300
2022-10-05T01:39:26.563Z,2448
2022-10-05T01:40:18.294Z,3139
2022-10-05T01:41:10.057Z,2904
2022-10-05T01:42:01.800Z,2353
2022-10-05T01:42:53.557Z,2686
2022-10-05T01:43:45.187Z,1662
2022-10-05T01:44:37.041Z,951
2022-10-05T01:45:28.795Z,1229
2022-10-05T01:46:20.582Z,1273
2022-10-05T01:47:12.278Z,945
2022-10-05T01:48:04.025Z,623
2022-10-05T01:48:55.706Z,541
2022-10-05T01:49:47.513Z,640
2022-10-05T01:50:39.244Z,610
2022-10-05T01:51:31.001Z,635
2022-10-05T01:52:22.746Z,1848
2022-10-05T01:53:14.485Z,1187
2022-10-05T01:54:06.220Z,678
2022-10-05T01:54:57.983Z,1709
2022-10-05T01:55:49.713Z,1981
2022-10-05T01:56:41.488Z,2047
2022-10-05T01:57:33.211Z,1721
2022-10-05T01:58:24.950Z,1997
2022-10-05T01:59:16.770Z,1832
2022-10-05T02:00:08.485Z,1098
2022-10-05T02:01:00.323Z,1789
2022-10-05T02:01:52.004Z,1809
2022-10-05T02:02:43.808Z,820
2022-10-05T02:03:35.453Z,731
2022-10-05T02:04:59.758Z,2128
2022-10-05T02:05:18.945Z,2178
2022-10-05T02:06:10.694Z,1435
2022-10-05T02:07:02.491Z,2071
2022-10-05T02:07:54.213Z,1098
2022-10-05T02:08:45.935Z,1711
2022-10-05T02:09:37.669Z,2267
2022-10-05T02:10:29.436Z,1910
2022-10-05T02:11:21.164Z,3139
2022-10-05T02:12:12.945Z,766
2022-10-05T02:13:04.655Z,2660
2022-10-05T02:13:56.426Z,677
2022-10-05T02:14:48.157Z,653
2022-10-05T02:15:40.144Z,2065
2022-10-05T02:16:31.649Z,1666
2022-10-05T02:17:23.428Z,1755
2022-10-05T02:18:15.051Z,1023
2022-10-05T02:19:06.916Z,759
2022-10-05T02:19:58.782Z,713
2022-10-05T02:20:50.405Z,1838
2022-10-05T02:21:42.171Z,897
2022-10-05T02:22:33.904Z,2085
2022-10-05T02:23:25.572Z,834
2022-10-05T02:24:17.397Z,615
2022-10-05T02:25:09.112Z,494
2022-10-05T02:26:00.858Z,745
2022-10-05T02:26:52.616Z,1076
2022-10-05T02:27:44.364Z,778
2022-10-05T02:28:36.152Z,647
2022-10-05T02:29:27.854Z,1090
2022-10-05T02:30:19.591Z,1858
2022-10-05T02:31:11.376Z,648
2022-10-05T02:32:03.115Z,544
2022-10-05T02:32:54.853Z,563
2022-10-05T02:33:46.563Z,676
2022-10-05T02:34:38.321Z,629
2022-10-05T02:35:30.089Z,1368
2022-10-05T02:36:21.829Z,1898
2022-10-05T02:37:13.534Z,1779
2022-10-05T02:38:05.221Z,1114
2022-10-05T02:38:57.034Z,1886
2022-10-05T02:39:48.796Z,1402
2022-10-05T02:40:40.516Z,905
2022-10-05T02:41:32.280Z,1872
2022-10-05T02:42:24.011Z,686
2022-10-05T02:43:15.703Z,644
2022-10-05T02:44:07.521Z,1372
2022-10-05T02:44:59.250Z,1298
2022-10-05T02:45:51.050Z,1241
2022-10-05T02:46:42.848Z,965
2022-10-05T02:47:34.481Z,694
2022-10-05T02:48:26.228Z,612
2022-10-05T02:49:17.979Z,578
2022-10-05T02:50:09.707Z,1227
2022-10-05T02:51:01.442Z,1451
2022-10-05T02:51:53.210Z,654
2022-10-05T02:52:44.921Z,810
2022-10-05T02:53:36.700Z,945
2022-10-05T02:54:28.440Z,648
2022-10-05T02:55:20.184Z,531
2022-10-05T02:56:11.893Z,1128
2022-10-05T02:57:03.650Z,2486
2022-10-05T02:57:55.370Z,682
2022-10-05T02:58:47.136Z,679
2022-10-05T02:59:38.924Z,541
2022-10-05T03:00:30.620Z,1193
2022-10-05T03:01:22.402Z,642
2022-10-05T03:02:14.165Z,672
2022-10-05T03:03:05.783Z,579
2022-10-05T03:03:57.579Z,683
2022-10-05T03:04:49.313Z,604
2022-10-05T03:05:41.089Z,524
2022-10-05T03:06:32.792Z,622
2022-10-05T03:07:24.554Z,1914
2022-10-05T03:08:16.322Z,1316
2022-10-05T03:09:08.035Z,1144
2022-10-05T03:10:01.251Z,802
2022-10-05T03:10:51.508Z,965
2022-10-05T03:11:43.242Z,1084
2022-10-05T03:12:34.995Z,1334
2022-10-05T03:13:26.711Z,1715
2022-10-05T03:14:18.461Z,1058
2022-10-05T03:15:10.186Z,731
2022-10-05T03:16:02.080Z,1457
2022-10-05T03:16:53.688Z,1485
2022-10-05T03:17:45.358Z,753
2022-10-05T03:18:37.161Z,683
2022-10-05T03:19:28.915Z,1233
2022-10-05T03:20:20.641Z,672
2022-10-05T03:21:12.402Z,617
2022-10-05T03:22:04.111Z,776
2022-10-05T03:22:55.893Z,2295
2022-10-05T03:23:47.597Z,701
2022-10-05T03:24:39.351Z,903
2022-10-05T03:25:31.081Z,935
2022-10-05T03:26:22.838Z,2019
2022-10-05T03:27:14.567Z,1140
2022-10-05T03:28:06.355Z,731
2022-10-05T03:28:58.040Z,1936
2022-10-05T03:29:49.779Z,729
2022-10-05T03:30:41.513Z,653
2022-10-05T03:31:33.301Z,1668
2022-10-05T03:32:24.991Z,1036
2022-10-05T03:33:16.745Z,595
2022-10-05T03:34:08.467Z,555
2022-10-05T03:35:00.238Z,1435
2022-10-05T03:35:51.940Z,1118
2022-10-05T03:36:44.038Z,675
2022-10-05T03:37:35.334Z,1509
2022-10-05T03:38:27.205Z,1298
2022-10-05T03:39:18.909Z,663
2022-10-05T03:40:10.663Z,1973
2022-10-05T03:41:02.376Z,2956
2022-10-05T03:41:54.132Z,2452
2022-10-05T03:42:45.801Z,2654
2022-10-05T03:43:37.620Z,844
2022-10-05T03:44:29.342Z,1005
2022-10-05T03:45:21.110Z,1701
2022-10-05T03:46:12.857Z,1898
2022-10-05T03:47:04.563Z,1267
2022-10-05T03:48:01.126Z,678
2022-10-05T03:48:48.044Z,568
2022-10-05T03:49:39.780Z,680
2022-10-05T03:50:31.574Z,991
2022-10-05T03:51:23.239Z,670
2022-10-05T03:52:15.003Z,925
2022-10-05T03:53:06.711Z,550
2022-10-05T03:53:58.458Z,880
2022-10-05T03:54:50.170Z,1320
2022-10-05T03:55:41.993Z,1126
2022-10-05T03:56:33.673Z,640
2022-10-05T03:57:25.351Z,545
2022-10-05T03:58:17.123Z,611
2022-10-05T03:59:08.867Z,567
2022-10-05T04:00:00.620Z,586
2022-10-05T04:00:52.353Z,1064
2022-10-05T04:01:44.135Z,1203
2022-10-05T04:02:35.831Z,1124
2022-10-05T04:03:27.532Z,667
2022-10-05T04:04:19.289Z,656
2022-10-05T04:05:10.991Z,566
2022-10-05T04:06:02.742Z,697
2022-10-05T04:06:54.472Z,723
2022-10-05T04:07:46.205Z,610
2022-10-05T04:08:37.941Z,971
2022-10-05T04:09:29.657Z,606
2022-10-05T04:10:21.420Z,534
2022-10-05T04:11:13.134Z,482
2022-10-05T04:12:04.852Z,481
2022-10-05T04:12:56.576Z,457
2022-10-05T04:13:48.313Z,667
2022-10-05T04:14:40.052Z,560
2022-10-05T04:15:31.784Z,567
2022-10-05T04:16:23.579Z,519
2022-10-05T04:17:15.181Z,545
2022-10-05T04:18:06.965Z,1237
2022-10-05T04:18:58.674Z,639
2022-10-05T04:19:50.427Z,609
2022-10-05T04:20:42.135Z,1066
2022-10-05T04:21:33.874Z,828
2022-10-05T04:22:25.555Z,583
2022-10-05T04:23:17.326Z,624
2022-10-05T04:24:09.047Z,514
2022-10-05T04:25:00.790Z,747
2022-10-05T04:25:52.487Z,572
2022-10-05T04:26:44.647Z,945
2022-10-05T04:27:35.892Z,1036
2022-10-05T04:28:31.161Z,2188
2022-10-05T04:29:19.388Z,1622
2022-10-05T04:30:11.130Z,1447
2022-10-05T04:31:02.947Z,690
2022-10-05T04:31:54.581Z,1549
2022-10-05T04:32:46.317Z,1926
2022-10-05T04:33:38.051Z,2202
2022-10-05T04:34:29.777Z,1799
2022-10-05T04:35:21.512Z,1648
2022-10-05T04:36:13.304Z,1350
2022-10-05T04:37:04.980Z,925
2022-10-05T04:37:56.694Z,677
2022-10-05T04:38:48.448Z,638
2022-10-05T04:39:40.166Z,695
2022-10-05T04:40:31.938Z,1201
2022-10-05T04:41:23.659Z,921
2022-10-05T04:42:15.380Z,641
2022-10-05T04:43:07.098Z,539
2022-10-05T04:43:58.848Z,645
2022-10-05T04:44:50.559Z,629
2022-10-05T04:45:42.309Z,656
2022-10-05T04:46:34.136Z,697
2022-10-05T04:47:25.690Z,913
2022-10-05T04:48:17.466Z,630
2022-10-05T04:49:09.213Z,947
2022-10-05T04:50:00.851Z,646
2022-10-05T04:50:52.704Z,636
2022-10-05T04:51:47.740Z,605
2022-10-05T04:52:36.136Z,1009
2022-10-05T04:53:27.846Z,1314
2022-10-05T04:54:19.593Z,1227
2022-10-05T04:55:11.296Z,1348
2022-10-05T04:56:03.048Z,1048
2022-10-05T04:56:54.773Z,685
2022-10-05T04:57:46.512Z,834
2022-10-05T04:58:41.527Z,677
2022-10-05T04:59:29.959Z,632
2022-10-05T05:00:21.674Z,1120
2022-10-05T05:01:13.490Z,613
2022-10-05T05:02:05.153Z,1048
2022-10-05T05:02:56.915Z,673
2022-10-05T05:03:48.679Z,657
2022-10-05T05:04:40.356Z,613
2022-10-05T05:05:32.057Z,544
2022-10-05T05:06:23.803Z,560
2022-10-05T05:07:15.453Z,567
2022-10-05T05:08:07.268Z,537
2022-10-05T05:08:59.009Z,500
2022-10-05T05:09:50.745Z,757
2022-10-05T05:10:42.441Z,652
2022-10-05T05:11:34.202Z,678
2022-10-05T05:12:25.842Z,646
2022-10-05T05:13:17.661Z,604
2022-10-05T05:14:09.388Z,578
2022-10-05T05:15:01.045Z,558
2022-10-05T05:15:52.914Z,544
2022-10-05T05:16:44.927Z,467
2022-10-05T05:17:36.297Z,524
2022-10-05T05:18:28.033Z,582
2022-10-05T05:19:19.735Z,538
2022-10-05T05:20:11.487Z,583
2022-10-05T05:21:03.206Z,675
2022-10-05T05:21:54.930Z,735
2022-10-05T05:22:46.642Z,647
2022-10-05T05:23:38.362Z,537
2022-10-05T05:24:30.083Z,560
2022-10-05T05:25:21.822Z,884
2022-10-05T05:26:13.534Z,577
2022-10-05T05:27:05.276Z,664
2022-10-05T05:27:57.004Z,531
2022-10-05T05:28:48.718Z,527
2022-10-05T05:29:40.447Z,635
2022-10-05T05:30:32.166Z,618
2022-10-05T05:31:23.935Z,620
2022-10-05T05:32:15.536Z,508
2022-10-05T05:33:07.325Z,478
2022-10-05T05:33:59.066Z,689
2022-10-05T05:34:50.776Z,1914
2022-10-05T05:35:42.528Z,694
2022-10-05T05:36:34.243Z,2251
2022-10-05T05:37:25.938Z,717
2022-10-05T05:38:17.711Z,527
2022-10-05T05:39:09.436Z,521
2022-10-05T05:40:01.083Z,513
2022-10-05T05:40:52.868Z,575
2022-10-05T05:41:44.603Z,856
2022-10-05T05:42:36.353Z,532
2022-10-05T05:43:28.049Z,1340
2022-10-05T05:44:19.808Z,660
2022-10-05T05:45:11.494Z,747
2022-10-05T05:46:03.226Z,866
2022-10-05T05:47:04.578Z,1890
2022-10-05T05:47:46.760Z,656
2022-10-05T05:48:38.371Z,671
2022-10-05T05:49:30.115Z,665
2022-10-05T05:50:21.807Z,2267
2022-10-05T05:51:13.572Z,3030
2022-10-05T05:52:05.255Z,2589
2022-10-05T05:52:57.016Z,2543
2022-10-05T05:53:48.749Z,2720
2022-10-05T05:54:40.466Z,1539
2022-10-05T05:55:32.202Z,1457
2022-10-05T05:56:23.949Z,2232
2022-10-05T05:57:15.588Z,4598
2022-10-05T05:58:07.406Z,2204
2022-10-05T05:58:59.154Z,2368
2022-10-05T05:59:50.907Z,1854
2022-10-05T06:00:42.623Z,4784
2022-10-05T06:01:34.393Z,3405
2022-10-05T06:02:26.244Z,3095
2022-10-05T06:03:17.981Z,3319
2022-10-05T06:04:09.585Z,2599
2022-10-05T06:05:01.270Z,2990
2022-10-05T06:05:53.090Z,2942
2022-10-05T06:06:45.178Z,2837
2022-10-05T06:07:36.574Z,3196
2022-10-05T06:08:28.351Z,3127
2022-10-05T06:09:20.080Z,3085
2022-10-05T06:10:11.837Z,4185
2022-10-05T06:11:03.579Z,3192
2022-10-05T06:11:55.355Z,3474
2022-10-05T06:12:47.079Z,3474
2022-10-05T06:13:38.874Z,5997
2022-10-05T06:14:30.577Z,3157
2022-10-05T06:15:22.354Z,6774
2022-10-05T06:16:14.101Z,3230
2022-10-05T06:17:05.788Z,5844
2022-10-05T06:17:57.611Z,3286
2022-10-05T06:18:49.368Z,4185
2022-10-05T06:19:41.092Z,2748
2022-10-05T06:20:32.872Z,11044
2022-10-05T06:21:24.618Z,3186
2022-10-05T06:22:16.393Z,2116
2022-10-05T06:23:08.121Z,2424
2022-10-05T06:23:59.880Z,2525
2022-10-05T06:24:51.618Z,2140
2022-10-05T06:25:43.384Z,2037
2022-10-05T06:26:35.125Z,2488
2022-10-05T06:27:26.881Z,4024
2022-10-05T06:28:18.690Z,3502
2022-10-05T06:29:10.384Z,3684
2022-10-05T06:30:02.176Z,4064
2022-10-05T06:30:53.888Z,2922
2022-10-05T06:31:45.582Z,2607
2022-10-05T06:32:37.379Z,2462
2022-10-05T06:33:29.132Z,2098
2022-10-05T06:34:20.875Z,2031
2022-10-05T06:35:12.601Z,1775
2022-10-05T06:36:04.373Z,2019
2022-10-05T06:36:56.032Z,2533
2022-10-05T06:37:47.867Z,2265
2022-10-05T06:38:39.583Z,1821
2022-10-05T06:39:31.358Z,1930
2022-10-05T06:40:23.082Z,1564
2022-10-05T06:41:14.832Z,1539
2022-10-05T06:42:06.566Z,1602
2022-10-05T06:42:58.312Z,1499
2022-10-05T06:43:50.052Z,1390
2022-10-05T06:44:41.801Z,1779
2022-10-05T06:45:33.616Z,1326
2022-10-05T06:46:25.312Z,1862
2022-10-05T06:47:17.003Z,1650
2022-10-05T06:48:08.789Z,1110
2022-10-05T06:49:00.512Z,923
2022-10-05T06:49:52.264Z,656
2022-10-05T06:50:43.985Z,573
2022-10-05T06:51:35.657Z,636
2022-10-05T06:52:27.466Z,631
2022-10-05T06:53:19.215Z,588
2022-10-05T06:54:10.921Z,985
2022-10-05T06:55:02.717Z,617
2022-10-05T06:55:54.375Z,674
2022-10-05T06:56:46.336Z,582
2022-10-05T06:57:37.839Z,508
2022-10-05T06:58:29.483Z,635
2022-10-05T06:59:21.317Z,573
2022-10-05T07:00:13.037Z,668
2022-10-05T07:01:04.807Z,639
2022-10-05T07:01:56.510Z,571
2022-10-05T07:02:48.205Z,625
2022-10-05T07:03:39.930Z,611
2022-10-05T07:04:34.653Z,510
2022-10-05T07:05:23.372Z,444
2022-10-05T07:06:15.095Z,413
2022-10-05T07:07:06.832Z,576
2022-10-05T07:07:58.536Z,834
2022-10-05T07:08:50.272Z,669
2022-10-05T07:09:42.011Z,633
2022-10-05T07:10:33.715Z,600
2022-10-05T07:11:25.459Z,669
2022-10-05T07:12:17.167Z,501
2022-10-05T07:13:08.901Z,386
2022-10-05T07:14:00.623Z,393
2022-10-05T07:14:52.337Z,478
2022-10-05T07:15:44.087Z,520
2022-10-05T07:16:35.742Z,554
2022-10-05T07:17:27.530Z,925
2022-10-05T07:18:19.237Z,503
2022-10-05T07:19:10.988Z,490
2022-10-05T07:20:02.731Z,482
2022-10-05T07:20:54.413Z,480
2022-10-05T07:21:46.439Z,452
2022-10-05T07:22:37.877Z,1650
2022-10-05T07:23:29.582Z,1189
2022-10-05T07:24:21.348Z,1144
2022-10-05T07:25:13.052Z,604
2022-10-05T07:26:04.789Z,480
2022-10-05T07:26:56.503Z,491
2022-10-05T07:27:50.921Z,400
2022-10-05T07:28:40.043Z,608
2022-10-05T07:29:31.696Z,537
2022-10-05T07:30:23.487Z,471
2022-10-05T07:31:15.257Z,448
2022-10-05T07:32:06.857Z,446
2022-10-05T07:32:58.600Z,519
2022-10-05T07:33:50.316Z,437
2022-10-05T07:34:42.144Z,691
2022-10-05T07:35:33.776Z,590
2022-10-05T07:36:25.503Z,556
2022-10-05T07:37:17.221Z,525
2022-10-05T07:38:08.957Z,1295
2022-10-05T07:39:00.676Z,553
2022-10-05T07:40:00.600Z,521
2022-10-05T07:40:44.125Z,731
2022-10-05T07:41:35.808Z,979
2022-10-05T07:42:27.600Z,556
2022-10-05T07:43:19.338Z,545
2022-10-05T07:44:12.917Z,467
2022-10-05T07:45:02.806Z,431
2022-10-05T07:45:54.576Z,419
2022-10-05T07:46:46.615Z,423
2022-10-05T07:47:37.991Z,397
2022-10-05T07:48:29.712Z,416
2022-10-05T07:49:21.423Z,370
2022-10-05T07:50:13.180Z,441
2022-10-05T07:51:04.899Z,441
2022-10-05T07:51:56.615Z,451
2022-10-05T07:52:48.344Z,379
2022-10-05T07:53:40.080Z,420
2022-10-05T07:54:31.803Z,484
2022-10-05T07:55:23.533Z,477
2022-10-05T07:56:15.237Z,655
2022-10-05T07:57:06.999Z,537
2022-10-05T07:57:58.690Z,459
2022-10-05T07:58:50.451Z,475
2022-10-05T07:59:42.150Z,496
2022-10-05T08:00:33.894Z,519
2022-10-05T08:01:25.627Z,487
2022-10-05T08:02:17.502Z,477
2022-10-05T08:03:09.086Z,497
2022-10-05T08:04:00.812Z,457
2022-10-05T08:04:52.530Z,387
2022-10-05T08:05:44.283Z,371
2022-10-05T08:06:35.976Z,402
2022-10-05T08:07:27.742Z,566
2022-10-05T08:08:20.439Z,475
2022-10-05T08:09:11.199Z,549
2022-10-05T08:10:02.983Z,555
2022-10-05T08:10:54.656Z,586
2022-10-05T08:11:46.615Z,606
2022-10-05T08:12:38.133Z,504
2022-10-05T08:13:29.844Z,532
2022-10-05T08:14:21.589Z,457
2022-10-05T08:15:13.306Z,452
2022-10-05T08:16:05.087Z,634
2022-10-05T08:16:56.761Z,485
2022-10-05T08:17:48.489Z,457
2022-10-05T08:18:40.201Z,523
2022-10-05T08:19:31.940Z,489
2022-10-05T08:20:23.667Z,467
2022-10-05T08:21:15.403Z,476
2022-10-05T08:22:07.101Z,485
2022-10-05T08:22:58.837Z,508
2022-10-05T08:23:50.597Z,501
2022-10-05T08:24:42.300Z,453
2022-10-05T08:25:34.018Z,439
2022-10-05T08:26:25.667Z,404
2022-10-05T08:27:17.474Z,404
2022-10-05T08:28:09.274Z,495
2022-10-05T08:29:00.914Z,499
2022-10-05T08:29:52.659Z,463
2022-10-05T08:30:44.412Z,455
2022-10-05T08:31:36.108Z,387
2022-10-05T08:32:27.833Z,429
2022-10-05T08:33:19.565Z,562
2022-10-05T08:34:11.283Z,458
2022-10-05T08:35:03.020Z,509
2022-10-05T08:35:54.717Z,852
2022-10-05T08:36:49.225Z,564
2022-10-05T08:37:38.167Z,439
2022-10-05T08:38:29.926Z,523
2022-10-05T08:39:21.621Z,441
2022-10-05T08:40:13.372Z,429
2022-10-05T08:41:05.076Z,850
2022-10-05T08:41:56.822Z,554
2022-10-05T08:42:48.543Z,522
2022-10-05T08:43:40.318Z,534
2022-10-05T08:44:32.021Z,581
2022-10-05T08:45:23.778Z,1088
2022-10-05T08:46:15.576Z,1165
2022-10-05T08:47:07.247Z,2001
2022-10-05T08:47:59.004Z,852
2022-10-05T08:48:50.736Z,1074
2022-10-05T08:49:42.455Z,681
2022-10-05T08:50:34.227Z,739
2022-10-05T08:51:25.932Z,1632
2022-10-05T08:52:17.706Z,2496
2022-10-05T08:53:09.426Z,1158
2022-10-05T08:54:01.185Z,2073
2022-10-05T08:54:52.926Z,3105
2022-10-05T08:55:44.718Z,1805
2022-10-05T08:56:36.424Z,2412
2022-10-05T08:57:28.181Z,2984
2022-10-05T08:58:19.919Z,1747
2022-10-05T08:59:11.695Z,2992
2022-10-05T09:00:03.356Z,2918
2022-10-05T09:00:55.187Z,2267
2022-10-05T09:01:47.273Z,1932
2022-10-05T09:02:38.770Z,2043
2022-10-05T09:03:34.306Z,1741
2022-10-05T09:04:22.215Z,1618
2022-10-05T09:05:13.973Z,1860
2022-10-05T09:06:05.652Z,3375
2022-10-05T09:06:57.470Z,5221
2022-10-05T09:07:49.237Z,6846
2022-10-05T09:08:40.966Z,4493
2022-10-05T09:09:32.745Z,3286
2022-10-05T09:10:24.482Z,2541
2022-10-05T09:11:16.181Z,3464
2022-10-05T09:12:08.008Z,2970
2022-10-05T09:12:59.775Z,2474
2022-10-05T09:13:51.517Z,2865
2022-10-05T09:14:43.294Z,4113
2022-10-05T09:15:35.095Z,2698
2022-10-05T09:16:26.952Z,3317
2022-10-05T09:17:18.570Z,5755
2022-10-05T09:18:10.333Z,3339
2022-10-05T09:19:02.092Z,3379
2022-10-05T09:19:53.858Z,2325
2022-10-05T09:20:45.611Z,2908
2022-10-05T09:21:37.391Z,3611
2022-10-05T09:22:29.144Z,2690
2022-10-05T09:23:20.915Z,4962
2022-10-05T09:24:12.682Z,2424
2022-10-05T09:25:04.402Z,3313
2022-10-05T09:25:56.112Z,5560
2022-10-05T09:26:47.954Z,3016
2022-10-05T09:27:39.729Z,3611
2022-10-05T09:28:31.543Z,3077
2022-10-05T09:29:23.255Z,4428
2022-10-05T09:30:15.001Z,2766
2022-10-05T09:31:06.814Z,6288
2022-10-05T09:31:58.534Z,6701
2022-10-05T09:32:50.282Z,3276
2022-10-05T09:33:42.059Z,8068
2022-10-05T09:34:33.838Z,3206
2022-10-05T09:35:25.599Z,6329
2022-10-05T09:36:17.336Z,3268
2022-10-05T09:37:09.125Z,2136
2022-10-05T09:38:00.869Z,3619
2022-10-05T09:38:52.648Z,2724
2022-10-05T09:39:44.405Z,6547
2022-10-05T09:40:36.123Z,4663
2022-10-05T09:41:27.926Z,9322
2022-10-05T09:42:19.704Z,6531
2022-10-05T09:43:11.475Z,5860
2022-10-05T09:44:03.232Z,3178
2022-10-05T09:44:54.994Z,8027
2022-10-05T09:45:46.790Z,3530
2022-10-05T09:46:38.632Z,3379
2022-10-05T09:47:30.318Z,4598
2022-10-05T09:48:22.051Z,3854
2022-10-05T09:49:13.816Z,5035
2022-10-05T09:50:05.568Z,8755
2022-10-05T09:50:57.364Z,3218
2022-10-05T09:51:49.551Z,2638
2022-10-05T09:52:40.888Z,2053
2022-10-05T09:53:32.635Z,2190
2022-10-05T09:54:24.409Z,2132
2022-10-05T09:55:16.078Z,1916
2022-10-05T09:56:07.945Z,2051
2022-10-05T09:56:59.687Z,2116
2022-10-05T09:57:53.158Z,2376
2022-10-05T09:58:43.206Z,2887
2022-10-05T09:59:35.017Z,5779
2022-10-05T10:00:26.744Z,7219
2022-10-05T10:01:33.099Z,3983
2022-10-05T10:02:10.363Z,3307
2022-10-05T10:03:02.203Z,3405
2022-10-05T10:03:53.799Z,2865
2022-10-05T10:04:45.576Z,3254
2022-10-05T10:05:37.321Z,3603
2022-10-05T10:06:29.118Z,2744
2022-10-05T10:07:20.857Z,2922
2022-10-05T10:08:12.641Z,2545
2022-10-05T10:09:04.396Z,2696
2022-10-05T10:09:56.119Z,2597
2022-10-05T10:10:47.908Z,2656
2022-10-05T10:11:39.694Z,2573
2022-10-05T10:12:31.379Z,2668
2022-10-05T10:13:23.235Z,2551
2022-10-05T10:14:14.993Z,4024
2022-10-05T10:15:06.718Z,5649
2022-10-05T10:15:58.533Z,4501
2022-10-05T10:16:50.312Z,7008
2022-10-05T10:17:42.043Z,4994
2022-10-05T10:18:33.833Z,5261
2022-10-05T10:19:25.590Z,3387
2022-10-05T10:20:17.462Z,3502
2022-10-05T10:21:09.111Z,3781
2022-10-05T10:22:00.900Z,3464
2022-10-05T10:22:52.657Z,3004
2022-10-05T10:23:44.438Z,2920
2022-10-05T10:24:36.100Z,3184
2022-10-05T10:25:27.966Z,2829
2022-10-05T10:26:19.728Z,2857
2022-10-05T10:27:11.523Z,3081
2022-10-05T10:28:03.314Z,3652
2022-10-05T10:28:55.058Z,3252
2022-10-05T10:29:46.823Z,2940
2022-10-05T10:30:38.609Z,3157
2022-10-05T10:31:30.417Z,6830
2022-10-05T10:32:22.138Z,5407
2022-10-05T10:33:13.892Z,3258
2022-10-05T10:34:05.686Z,3466
2022-10-05T10:34:57.445Z,6563
2022-10-05T10:35:49.225Z,3377
2022-10-05T10:36:40.981Z,3749
2022-10-05T10:37:32.673Z,3093
2022-10-05T10:38:24.540Z,3030
2022-10-05T10:39:16.226Z,5002
2022-10-05T10:40:08.135Z,2950
2022-10-05T10:40:59.777Z,2879
2022-10-05T10:41:51.627Z,3563
2022-10-05T10:42:43.408Z,4881
2022-10-05T10:43:35.173Z,2841
2022-10-05T10:44:26.956Z,2996
2022-10-05T10:45:18.744Z,3789
2022-10-05T10:46:10.574Z,2994
2022-10-05T10:47:02.294Z,3151
2022-10-05T10:47:54.070Z,2797
2022-10-05T10:48:45.815Z,2650
2022-10-05T10:49:37.635Z,2726
2022-10-05T10:50:29.388Z,2706
2022-10-05T10:51:21.213Z,3101
2022-10-05T10:52:12.955Z,3095
2022-10-05T10:53:04.745Z,2726
2022-10-05T10:53:56.432Z,4202
2022-10-05T10:54:48.302Z,4250
2022-10-05T10:55:40.083Z,3141
2022-10-05T10:56:31.871Z,3012
2022-10-05T10:57:23.645Z,2986
2022-10-05T10:58:16.193Z,2974
2022-10-05T10:59:07.222Z,3264
2022-10-05T10:59:59.016Z,3202
2022-10-05T11:00:50.767Z,3186
2022-10-05T11:01:42.627Z,3290
2022-10-05T11:02:34.376Z,3644
2022-10-05T11:03:26.046Z,3131
2022-10-05T11:04:17.922Z,3147
2022-10-05T11:05:09.690Z,3149
2022-10-05T11:06:01.394Z,2988
2022-10-05T11:06:53.256Z,3343
2022-10-05T11:07:45.048Z,3331
2022-10-05T11:08:36.829Z,3081
2022-10-05T11:09:28.608Z,3286
2022-10-05T11:10:20.421Z,3238
2022-10-05T11:11:12.176Z,3083
2022-10-05T11:12:03.994Z,4291
2022-10-05T11:12:55.776Z,3333
2022-10-05T11:13:47.556Z,3105
2022-10-05T11:14:39.309Z,3260
2022-10-05T11:15:31.081Z,3133
2022-10-05T11:16:22.906Z,3022
2022-10-05T11:17:14.688Z,2932
2022-10-05T11:18:06.491Z,2902
2022-10-05T11:18:58.252Z,2771
2022-10-05T11:20:03.573Z,2787
2022-10-05T11:20:41.838Z,2714
2022-10-05T11:21:33.599Z,2754
2022-10-05T11:22:25.392Z,2760
2022-10-05T11:23:17.168Z,2724
2022-10-05T11:24:08.982Z,2797
2022-10-05T11:25:00.732Z,2815
2022-10-05T11:25:52.541Z,2783
2022-10-05T11:26:44.310Z,2938
2022-10-05T11:27:36.109Z,2922
2022-10-05T11:28:27.939Z,2970
2022-10-05T11:29:19.704Z,2936
2022-10-05T11:30:11.453Z,2936
2022-10-05T11:31:03.312Z,2938
2022-10-05T11:31:55.141Z,2950
2022-10-05T11:32:46.860Z,2934
2022-10-05T11:33:38.593Z,2843
2022-10-05T11:34:30.417Z,2952
2022-10-05T11:35:22.211Z,2839
2022-10-05T11:36:13.995Z,2833
2022-10-05T11:37:05.789Z,2904
2022-10-05T11:37:57.589Z,2867
2022-10-05T11:38:49.354Z,2889